Time;durP1;ratioP1;P1;durP2;ratioP2;P2;SDS_P1;SDS_P2;PMS_P1;PMS_P2;Temp;Humidity;BMP_temperature;BMP_pressure;BME280_temperature;BME280_humidity;BME280_pressure;Samples;Min_cycle;Max_cycle;Signal;HPM_P1;HPM_P2
2023/04/09 00:00:47;;;;;;;;;;;;;;;-144.99;100.00;52338.03;5026719;28;19993;-69
2023/04/09 00:03:14;;;;;;;;;;;;;;;-144.99;100.00;52309.50;5025738;28;20063;-69
2023/04/09 00:05:41;;;;;;;;;;;;;;;-144.99;100.00;52350.25;5025726;28;19966;-68
2023/04/09 00:08:07;;;;;;;;;;;;;;;-144.99;100.00;52305.41;5027476;28;20041;-70
2023/04/09 00:10:35;;;;;;;;;;;;;;;-144.99;100.00;52321.72;5027494;28;20317;-71
2023/04/09 00:13:02;;;;;;;;;;;;;;;-144.99;100.00;52348.22;5025568;28;20333;-73
2023/04/09 00:15:28;;;;;;;;;;;;;;;-144.99;99.81;52366.56;5031099;28;19960;-71
2023/04/09 00:17:55;;;;;;;;;;;;;;;-144.99;99.74;52346.19;5028123;28;20394;-71
2023/04/09 00:20:22;;;;;;;;;;;;;;;-144.99;98.52;52354.34;5030526;28;20044;-71
2023/04/09 00:22:49;;;;;;;;;;;;;;;-144.99;98.05;52317.66;5033306;28;20029;-69
2023/04/09 00:25:15;;;;;;;;;;;;;;;-144.99;97.64;52346.19;5026852;28;19985;-69
2023/04/09 00:27:43;;;;;;;;;;;;;;;-144.99;97.46;52313.56;5026828;28;19992;-69
2023/04/09 00:30:10;;;;;;;;;;;;;;;-144.99;97.52;52366.56;5034295;28;19949;-68
2023/04/09 00:32:36;;;;;;;;;;;;;;;-144.99;97.34;52346.19;5025810;28;19952;-66
2023/04/09 00:35:03;;;;;;;;;;;;;;;-144.99;97.46;52333.94;5027071;28;19973;-66
2023/04/09 00:37:30;;;;;;;;;;;;;;;-144.99;97.33;52338.03;5027500;28;20456;-66
2023/04/09 00:39:56;;;;;;;;;;;;;;;-144.99;97.45;52346.19;5030643;28;20024;-65
2023/04/09 00:42:23;;;;;;;;;;;;;;;-144.99;97.25;52321.72;5024156;28;20015;-68
2023/04/09 00:44:51;;;;;;;;;;;;;;;-144.99;97.85;52366.56;5032788;28;20440;-69
2023/04/09 00:47:17;;;;;;;;;;;;;;;-144.99;97.92;52321.72;5019825;28;19948;-66
2023/04/09 00:49:44;;;;;;;;;;;;;;;-144.99;97.69;52346.19;5027125;28;19988;-68
2023/04/09 00:52:11;;;;;;;;;;;;;;;-144.99;98.36;52338.03;5025595;28;20303;-66
2023/04/09 00:54:37;;;;;;;;;;;;;;;-144.99;97.64;52333.94;5035773;28;19985;-65
2023/04/09 00:57:04;;;;;;;;;;;;;;;-144.99;97.55;52313.56;5023570;28;20015;-67
2023/04/09 00:59:30;;;;;;;;;;;;;;;-144.99;97.41;52329.88;5026009;28;20204;-67
2023/04/09 01:01:58;;;;;;;;;;;;;;;-144.99;97.44;52338.03;5018278;28;20413;-68
2023/04/09 01:04:25;;;;;;;;;;;;;;;-144.99;97.50;52303.38;5022758;28;19945;-68
2023/04/09 01:06:52;;;;;;;;;;;;;;;-144.99;97.34;52388.97;5024984;28;19967;-67
2023/04/09 01:09:24;;;;;;;;;;;;;;;-144.99;98.41;52313.56;5020248;28;19977;-68
2023/04/09 01:11:55;;;;;;;;;;;;;;;-144.99;100.00;52348.22;5026642;28;20011;-68
2023/04/09 01:14:25;;;;;;;;;;;;;;;-144.99;99.51;52378.78;5019272;28;19952;-70
2023/04/09 01:16:53;;;;;;;;;;;;;;;-144.99;100.00;52350.25;5013408;28;19971;-69
2023/04/09 01:19:29;;;;;;;;;;;;;;;-144.99;100.00;52356.38;5025937;28;20000;-69
2023/04/09 01:21:56;;;;;;;;;;;;;;;-144.99;100.00;52354.34;5008390;28;19952;-70
2023/04/09 01:24:39;;;;;;;;;;;;;;;-144.99;100.00;52350.25;5023197;28;20003;-71
2023/04/09 01:27:07;;;;;;;;;;;;;;;-144.99;100.00;52342.09;5024581;28;20445;-70
2023/04/09 01:29:37;;;;;;;;;;;;;;;-144.99;100.00;52354.34;5022054;28;20369;-69
2023/04/09 01:32:05;;;;;;;;;;;;;;;-144.99;100.00;52382.88;5020984;28;20380;-70
2023/04/09 01:34:32;;;;;;;;;;;;;;;-144.99;100.00;52344.16;5015866;28;19989;-67
2023/04/09 01:37:00;;;;;;;;;;;;;;;-144.99;100.00;52358.41;5011851;28;19995;-69
2023/04/09 01:39:27;;;;;;;;;;;;;;;-144.99;100.00;52315.59;5013443;28;20033;-71
2023/04/09 01:41:56;;;;;;;;;;;;;;;-144.99;100.00;52370.63;4677447;28;10000483;-71
2023/04/09 01:44:23;;;;;;;;;;;;;;;-144.99;100.00;52370.63;5020183;28;20450;-70
2023/04/09 01:46:51;;;;;;;;;;;;;;;-144.99;100.00;52370.63;5014601;28;19977;-70
2023/04/09 01:49:18;;;;;;;;;;;;;;;-144.99;100.00;52313.56;5027951;28;19999;-70
2023/04/09 01:51:45;;;;;;;;;;;;;;;-144.99;100.00;52333.94;5027131;28;20014;-70
2023/04/09 01:54:12;;;;;;;;;;;;;;;-144.99;100.00;52327.84;5034459;28;20068;-70
2023/04/09 01:56:42;;;;;;;;;;;;;;;-144.99;100.00;52305.41;5028363;28;19981;-69
2023/04/09 01:59:09;;;;;;;;;;;;;;;-144.99;100.00;52362.50;5024145;28;19962;-70
2023/04/09 02:01:38;;;;;;;;;;;;;;;-144.99;100.00;52299.31;5027848;28;19945;-69
2023/04/09 02:04:10;;;;;;;;;;;;;;;-144.99;100.00;52344.16;5027928;28;20028;-69
2023/04/09 02:06:40;;;;;;;;;;;;;;;-144.99;100.00;52358.41;5022820;28;20412;-70
2023/04/09 02:09:08;;;;;;;;;;;;;;;-144.99;100.00;52391.03;5023907;28;20374;-69
2023/04/09 02:11:35;;;;;;;;;;;;;;;-144.99;100.00;52338.03;5021520;28;19939;-69
2023/04/09 02:14:01;;;;;;;;;;;;;;;-144.99;100.00;52313.56;5020355;28;20431;-69
2023/04/09 02:16:29;;;;;;;;;;;;;;;-144.99;100.00;52374.72;5020100;28;19957;-70
2023/04/09 02:18:56;;;;;;;;;;;;;;;-144.99;100.00;52331.91;5024067;28;20369;-69
2023/04/09 02:21:25;;;;;;;;;;;;;;;-144.99;100.00;52350.25;5021484;28;19948;-69
2023/04/09 02:23:52;;;;;;;;;;;;;;;-144.99;100.00;52354.34;5014803;28;19947;-69
2023/04/09 02:26:18;;;;;;;;;;;;;;;-144.99;100.00;52338.03;5024076;28;20017;-69
2023/04/09 02:28:45;;;;;;;;;;;;;;;-144.99;100.00;52321.72;5017870;28;20369;-69
2023/04/09 02:31:11;;;;;;;;;;;;;;;-144.99;100.00;52350.25;5016150;28;19981;-69
2023/04/09 02:33:38;;;;;;;;;;;;;;;-144.99;100.00;52360.44;5022908;28;19948;-69
2023/04/09 02:36:05;;;;;;;;;;;;;;;-144.99;100.00;52374.72;5019887;28;19996;-69
2023/04/09 02:38:33;;;;;;;;;;;;;;;-144.99;100.00;52370.63;5024471;28;20199;-67
2023/04/09 02:40:59;;;;;;;;;;;;;;;-144.99;100.00;52309.50;5019055;28;19980;-66
2023/04/09 02:43:26;;;;;;;;;;;;;;;-144.99;100.00;52368.59;5020353;28;20344;-66
2023/04/09 02:45:52;;;;;;;;;;;;;;;-144.99;100.00;52321.72;5020698;28;20015;-72
2023/04/09 02:48:19;;;;;;;;;;;;;;;-144.99;100.00;52366.56;5029773;28;19954;-68
2023/04/09 02:50:45;;;;;;;;;;;;;;;-144.99;100.00;52374.72;5027454;28;19993;-68
2023/04/09 02:53:12;;;;;;;;;;;;;;;-144.99;100.00;52313.56;5034666;28;19950;-67
2023/04/09 02:55:40;;;;;;;;;;;;;;;-144.99;100.00;52366.56;5022409;28;20334;-67
2023/04/09 02:58:06;;;;;;;;;;;;;;;-144.99;100.00;52386.94;5023157;28;20013;-67
2023/04/09 03:00:33;;;;;;;;;;;;;;;-144.99;100.00;52354.34;5022141;28;19996;-68
2023/04/09 03:02:59;;;;;;;;;;;;;;;-144.99;100.00;52358.41;5024619;28;19983;-67
2023/04/09 03:05:26;;;;;;;;;;;;;;;-144.99;100.00;52352.28;5027612;28;20015;-67
2023/04/09 03:07:53;;;;;;;;;;;;;;;-144.99;100.00;52346.19;5030761;28;20434;-67
2023/04/09 03:10:19;;;;;;;;;;;;;;;-144.99;100.00;52317.66;5030963;28;19993;-67
2023/04/09 03:12:47;;;;;;;;;;;;;;;-144.99;100.00;52382.88;5030824;28;19989;-67
2023/04/09 03:15:14;;;;;;;;;;;;;;;-144.99;100.00;52374.72;5030625;28;19960;-68
2023/04/09 03:17:40;;;;;;;;;;;;;;;-144.99;100.00;52329.88;5029769;28;19999;-69
2023/04/09 03:20:07;;;;;;;;;;;;;;;-144.99;100.00;52350.25;5030196;28;19961;-69
2023/04/09 03:22:35;;;;;;;;;;;;;;;-144.99;100.00;52382.88;5017792;28;20404;-69
2023/04/09 03:25:02;;;;;;;;;;;;;;;-144.99;100.00;52305.41;5030964;28;20505;-70
2023/04/09 03:27:29;;;;;;;;;;;;;;;-144.99;100.00;52382.88;5022829;28;20224;-68
2023/04/09 03:29:57;;;;;;;;;;;;;;;-144.99;100.00;52352.28;5028040;28;20371;-66
2023/04/09 03:32:23;;;;;;;;;;;;;;;-144.99;100.00;52333.94;5029996;28;19940;-66
2023/04/09 03:34:50;;;;;;;;;;;;;;;-144.99;100.00;52325.81;5032089;28;19982;-67
2023/04/09 03:37:17;;;;;;;;;;;;;;;-144.99;100.00;52348.22;5021374;28;19944;-66
2023/04/09 03:39:43;;;;;;;;;;;;;;;-144.99;100.00;52366.56;5026439;28;20033;-66
2023/04/09 03:42:09;;;;;;;;;;;;;;;-144.99;100.00;52354.34;5026761;28;19944;-66
2023/04/09 03:44:36;;;;;;;;;;;;;;;-144.99;100.00;52340.06;5029789;28;19941;-65
2023/04/09 03:47:07;;;;;;;;;;;;;;;-144.99;100.00;52342.09;5019605;28;20110;-65
2023/04/09 03:53:13;;;;;;;;;;;;;;;-144.99;100.00;52346.19;5028744;28;19964;-65
2023/04/09 03:58:36;;;;;;;;;;;;;;;-144.99;100.00;52336.00;5014864;22;19961;-68
2023/04/09 04:01:05;;;;;;;;;;;;;;;-144.99;100.00;52319.69;5062498;28;19948;-67
2023/04/09 04:03:36;;;;;;;;;;;;;;;-144.99;100.00;52370.63;5071434;28;19993;-70
2023/04/09 04:06:03;;;;;;;;;;;;;;;-144.99;100.00;52342.09;5061504;28;20008;-66
2023/04/09 04:08:45;;;;;;;;;;;;;;;-144.99;100.00;52325.81;5059172;28;19942;-66
2023/04/09 04:11:20;;;;;;;;;;;;;;;-144.99;100.00;52338.03;5060681;28;20013;-65
2023/04/09 04:14:02;;;;;;;;;;;;;;;-144.99;100.00;52354.34;5057773;28;20039;-66
2023/04/09 04:16:29;;;;;;;;;;;;;;;-144.99;100.00;52329.88;5058071;28;20030;-65
2023/04/09 04:19:20;;;;;;;;;;;;;;;-144.99;100.00;52342.09;5052340;28;20001;-65
2023/04/09 04:22:03;;;;;;;;;;;;;;;-144.99;100.00;52327.84;5060938;28;19999;-69
2023/04/09 04:27:41;;;;;;;;;;;;;;;-144.99;100.00;52342.09;5075541;28;19945;-67
2023/04/09 04:33:16;;;;;;;;;;;;;;;-144.99;100.00;52350.25;5055025;28;20034;-67
2023/04/09 04:35:48;;;;;;;;;;;;;;;-144.99;100.00;52350.25;5064917;28;20397;-71
2023/04/09 04:38:36;;;;;;;;;;;;;;;-144.99;100.00;52340.06;5063358;28;19983;-70
2023/04/09 04:41:07;;;;;;;;;;;;;;;-144.99;100.00;52313.56;5061133;28;19985;-70
2023/04/09 04:46:40;;;;;;;;;;;;;;;-144.99;100.00;52382.88;5057367;28;20554;-69
2023/04/09 04:49:31;;;;;;;;;;;;;;;-144.99;100.00;52386.94;5050888;28;19937;-70
2023/04/09 04:52:00;;;;;;;;;;;;;;;-144.99;100.00;52333.94;5051754;28;19955;-69
2023/04/09 04:54:30;;;;;;;;;;;;;;;-144.99;100.00;52346.19;5063568;28;20405;-70
2023/04/09 04:57:05;;;;;;;;;;;;;;;-144.99;100.00;52342.09;5054397;28;19962;-70
2023/04/09 05:02:28;;;;;;;;;;;;;;;-144.99;100.00;52382.88;5058487;28;19946;-69
2023/04/09 05:05:01;;;;;;;;;;;;;;;-144.99;100.00;52370.63;5068374;28;20355;-67
2023/04/09 05:07:31;;;;;;;;;;;;;;;-144.99;100.00;52350.25;5060401;28;19938;-67
2023/04/09 05:10:00;;;;;;;;;;;;;;;-144.99;100.00;52362.50;5058297;28;19948;-66
2023/04/09 05:15:54;;;;;;;;;;;;;;;-144.99;100.00;52358.41;5061382;28;20009;-73
2023/04/09 05:18:25;;;;;;;;;;;;;;;-144.99;100.00;52309.50;5011298;28;20458;-72
2023/04/09 05:20:54;;;;;;;;;;;;;;;-144.99;100.00;52342.09;5062072;28;20003;-72
2023/04/09 05:23:24;;;;;;;;;;;;;;;-144.99;100.00;52338.03;5067571;28;19937;-72
2023/04/09 05:25:51;;;;;;;;;;;;;;;-144.99;100.00;52350.25;5059167;28;19964;-73
2023/04/09 05:28:20;;;;;;;;;;;;;;;-144.99;100.00;52333.94;5054963;28;19985;-72
2023/04/09 05:31:14;;;;;;;;;;;;;;;-144.99;100.00;52354.34;5050672;28;19999;-72
2023/04/09 05:33:45;;;;;;;;;;;;;;;-144.99;100.00;52366.56;5053895;28;20042;-66
2023/04/09 05:36:24;;;;;;;;;;;;;;;-144.99;100.00;52374.72;5060079;28;20221;-67
2023/04/09 05:38:54;;;;;;;;;;;;;;;-144.99;100.00;52338.03;5054346;28;19970;-68
2023/04/09 05:41:23;;;;;;;;;;;;;;;-144.99;100.00;52346.19;5053233;28;19992;-67
2023/04/09 05:44:05;;;;;;;;;;;;;;;-144.99;100.00;52364.53;5057621;28;19949;-67
2023/04/09 05:46:47;;;;;;;;;;;;;;;-144.99;100.00;52340.06;5058882;28;19993;-68
2023/04/09 05:49:18;;;;;;;;;;;;;;;-144.99;100.00;52346.19;5058925;28;20018;-67
2023/04/09 05:51:53;;;;;;;;;;;;;;;-144.99;100.00;52372.69;5050361;28;19953;-67
2023/04/09 05:54:19;;;;;;;;;;;;;;;-144.99;100.00;52350.25;5049908;28;19950;-68
2023/04/09 05:56:46;;;;;;;;;;;;;;;-144.99;100.00;52329.88;5060235;28;20291;-70
2023/04/09 05:59:13;;;;;;;;;;;;;;;-144.99;100.00;52356.38;5060250;28;20320;-67
2023/04/09 06:01:40;;;;;;;;;;;;;;;-144.99;100.00;52352.28;5051589;28;19956;-68
2023/04/09 06:04:09;;;;;;;;;;;;;;;-144.99;100.00;52354.34;5059992;28;20004;-67
2023/04/09 06:09:22;;;;;;;;;;;;;;;-144.99;100.00;52297.25;5055319;28;19951;-68
2023/04/09 06:11:58;;;;;;;;;;;;;;;-144.99;100.00;52378.78;5056563;28;20440;-68
2023/04/09 06:14:36;;;;;;;;;;;;;;;-144.99;100.00;52285.03;5054684;28;20397;-69
2023/04/09 06:17:03;;;;;;;;;;;;;;;-144.99;100.00;52333.94;5057232;28;19964;-69
2023/04/09 06:19:47;;;;;;;;;;;;;;;-144.99;100.00;52329.88;5053690;28;19978;-72
2023/04/09 06:22:29;;;;;;;;;;;;;;;-144.99;100.00;52374.72;5058205;28;20377;-72
2023/04/09 06:24:57;;;;;;;;;;;;;;;-144.99;100.00;52358.41;5042278;28;19944;-69
2023/04/09 06:27:26;;;;;;;;;;;;;;;-144.99;100.00;52325.81;5055997;28;20222;-69
2023/04/09 06:29:53;;;;;;;;;;;;;;;-144.99;100.00;52358.41;5064123;28;20006;-69
2023/04/09 06:32:34;;;;;;;;;;;;;;;-144.99;100.00;52329.88;5058841;28;20353;-69
2023/04/09 06:35:38;;;;;;;;;;;;;;;-144.99;100.00;52374.72;5059932;28;19957;-69
2023/04/09 06:38:10;;;;;;;;;;;;;;;-144.99;100.00;52317.66;5056922;28;19991;-69
2023/04/09 06:40:42;;;;;;;;;;;;;;;-144.99;100.00;52354.34;5060182;28;19995;-69
2023/04/09 06:43:08;;;;;;;;;;;;;;;-144.99;100.00;52350.25;5069505;28;19944;-68
2023/04/09 06:48:41;;;;;;;;;;;;;;;-144.99;100.00;52399.19;5027127;28;19962;-68
2023/04/09 06:51:13;;;;;;;;;;;;;;;-144.99;100.00;52378.78;5045267;28;19995;-68
2023/04/09 06:53:52;;;;;;;;;;;;;;;-144.99;100.00;52366.56;5052653;28;19996;-68
2023/04/09 06:56:27;;;;;;;;;;;;;;;-144.99;100.00;52338.03;5055200;28;20369;-68
2023/04/09 06:59:00;;;;;;;;;;;;;;;-144.99;100.00;52386.94;5069327;28;19968;-68
2023/04/09 07:01:30;;;;;;;;;;;;;;;-144.99;100.00;52338.03;5065573;28;20013;-69
2023/04/09 07:04:02;;;;;;;;;;;;;;;-144.99;100.00;52391.03;5066386;28;19949;-69
2023/04/09 07:06:41;;;;;;;;;;;;;;;-144.99;100.00;52346.19;5053780;28;19965;-69
2023/04/09 07:09:13;;;;;;;;;;;;;;;-144.99;100.00;52325.81;5063350;28;19954;-67
2023/04/09 07:11:41;;;;;;;;;;;;;;;-144.99;100.00;52348.22;5066677;28;19968;-68
2023/04/09 07:20:47;;;;;;;;;;;;;;;-144.99;100.00;52346.19;5034567;28;19954;-70
2023/04/09 07:23:21;;;;;;;;;;;;;;;-144.99;100.00;52327.84;5060488;28;19943;-72
2023/04/09 07:25:47;;;;;;;;;;;;;;;-144.99;100.00;52354.34;5058982;28;19987;-69
2023/04/09 07:30:50;;;;;;;;;;;;;;;-144.99;100.00;52384.91;5622931;22;19972;-72
2023/04/09 07:33:17;;;;;;;;;;;;;;;-144.99;100.00;52350.25;5047763;28;19972;-72
2023/04/09 07:35:43;;;;;;;;;;;;;;;-144.99;100.00;52362.50;5047839;28;20044;-72
2023/04/09 07:38:10;;;;;;;;;;;;;;;-144.99;100.00;52360.44;5047728;28;19940;-72
2023/04/09 07:40:36;;;;;;;;;;;;;;;-144.99;100.00;52287.06;5051964;28;19992;-71
2023/04/09 07:43:03;;;;;;;;;;;;;;;-144.99;100.00;52338.03;5059983;28;19979;-72
2023/04/09 07:45:29;;;;;;;;;;;;;;;-144.99;100.00;52350.25;5060746;28;20015;-73
2023/04/09 07:47:57;;;;;;;;;;;;;;;-144.99;100.00;52331.91;5073849;28;19948;-74
2023/04/09 07:50:24;;;;;;;;;;;;;;;-144.99;100.00;52317.66;5042547;28;20446;-73
2023/04/09 07:52:50;;;;;;;;;;;;;;;-144.99;100.00;52323.75;5038101;28;20053;-72
2023/04/09 07:55:17;;;;;;;;;;;;;;;-144.99;100.00;52362.50;5039079;28;20043;-72
2023/04/09 07:57:44;;;;;;;;;;;;;;;-144.99;100.00;52342.09;5038166;28;20382;-74
2023/04/09 08:00:12;;;;;;;;;;;;;;;-144.99;100.00;52329.88;5041268;28;20081;-71
2023/04/09 08:02:38;;;;;;;;;;;;;;;-144.99;100.00;52305.41;5038600;28;20093;-74
2023/04/09 08:05:07;;;;;;;;;;;;;;;-144.99;100.00;52297.25;5038666;28;20032;-73
2023/04/09 08:07:33;;;;;;;;;;;;;;;-144.99;100.00;52305.41;5040693;28;20035;-73
2023/04/09 08:10:00;;;;;;;;;;;;;;;-144.99;100.00;52309.50;5044726;28;19963;-73
2023/04/09 08:12:26;;;;;;;;;;;;;;;-144.99;100.00;52319.69;5061458;28;20146;-74
2023/04/09 08:14:53;;;;;;;;;;;;;;;-144.99;100.00;52319.69;5065598;28;20291;-73
2023/04/09 08:17:19;;;;;;;;;;;;;;;-144.99;100.00;52301.34;5062230;28;19947;-73
2023/04/09 08:19:46;;;;;;;;;;;;;;;-144.99;100.00;52276.88;5056433;28;19931;-73
2023/04/09 08:22:14;;;;;;;;;;;;;;;-144.99;100.00;52333.94;5051396;28;19983;-72
2023/04/09 08:24:42;;;;;;;;;;;;;;;-144.99;100.00;52311.53;5051214;28;19999;-72
2023/04/09 08:27:08;;;;;;;;;;;;;;;-144.99;97.13;52289.13;5069612;28;19933;-75
2023/04/09 08:29:35;;;;;;;;;;;;;;;-144.99;96.98;52317.66;5070372;28;19947;-73
2023/04/09 08:32:01;;;;;;;;;;;;;;;-144.99;96.60;52297.25;5057570;28;19929;-72
2023/04/09 08:34:28;;;;;;;;;;;;;;;-144.99;97.20;52287.06;5067521;28;19970;-73
2023/04/09 08:36:55;;;;;;;;;;;;;;;-144.99;97.29;52256.50;5046790;28;19972;-73
2023/04/09 08:39:24;;;;;;;;;;;;;;;-144.99;95.98;52333.94;5040264;28;20288;-72
2023/04/09 08:41:51;;;;;;;;;;;;;;;-144.99;96.08;52333.94;5058850;28;19928;-73
2023/04/09 08:44:18;;;;;;;;;;;;;;;-144.99;96.35;52301.34;5057551;28;20418;-72
2023/04/09 08:46:45;;;;;;;;;;;;;;;-144.99;96.45;52289.13;5069745;28;19944;-74
2023/04/09 08:49:11;;;;;;;;;;;;;;;-144.99;97.08;52333.94;5062957;28;19982;-73
2023/04/09 08:51:39;;;;;;;;;;;;;;;-144.99;94.93;52317.66;5056305;28;19933;-72
2023/04/09 08:54:05;;;;;;;;;;;;;;;-144.99;96.43;52327.84;5045023;28;20470;-72
2023/04/09 08:56:33;;;;;;;;;;;;;;;-144.99;95.96;52329.88;5055218;28;20419;-72
2023/04/09 08:59:00;;;;;;;;;;;;;;;-144.99;96.76;52340.06;5057177;28;19925;-73
2023/04/09 09:01:27;;;;;;;;;;;;;;;-144.99;94.55;52329.88;5056680;28;19971;-72
2023/04/09 09:03:55;;;;;;;;;;;;;;;-144.99;93.55;52321.72;5051158;28;20051;-73
2023/04/09 09:06:22;;;;;;;;;;;;;;;-144.99;92.86;52305.41;5051892;28;19947;-73
2023/04/09 09:08:59;;;;;;;;;;;;;;;-144.99;92.24;52321.72;5070037;28;19928;-73
2023/04/09 09:11:25;;;;;;;;;;;;;;;-144.99;91.74;52338.03;5061778;28;19998;-72
2023/04/09 09:13:58;;;;;;;;;;;;;;;-144.99;91.42;52309.50;5049797;28;20016;-72
2023/04/09 09:16:25;;;;;;;;;;;;;;;-144.99;91.21;52350.25;5048556;28;19924;-73
2023/04/09 09:18:51;;;;;;;;;;;;;;;-144.99;91.14;52305.41;5051725;28;19925;-72
2023/04/09 09:21:18;;;;;;;;;;;;;;;-144.99;91.59;52297.25;5044431;28;19925;-72
2023/04/09 09:23:47;;;;;;;;;;;;;;;-144.99;92.01;52350.25;5039951;28;19987;-72
2023/04/09 09:26:15;;;;;;;;;;;;;;;-144.99;91.21;52342.09;5049407;28;19963;-72
2023/04/09 09:28:41;;;;;;;;;;;;;;;-144.99;90.83;52329.88;5054996;28;19925;-72
2023/04/09 09:31:09;;;;;;;;;;;;;;;-144.99;90.24;52321.72;5037413;28;20044;-71
2023/04/09 09:33:36;;;;;;;;;;;;;;;-144.99;90.02;52325.81;5042781;28;19929;-72
2023/04/09 09:36:03;;;;;;;;;;;;;;;-144.99;89.96;52285.03;5046822;28;19974;-71
2023/04/09 09:38:30;;;;;;;;;;;;;;;-144.99;90.09;52346.19;5052070;28;19932;-72
2023/04/09 09:40:57;;;;;;;;;;;;;;;-144.99;89.95;52317.66;5050745;28;20010;-72
2023/04/09 09:43:24;;;;;;;;;;;;;;;-144.99;89.88;52325.81;5058679;28;19932;-72
2023/04/09 09:45:50;;;;;;;;;;;;;;;-144.99;89.56;52285.03;5053847;28;19932;-72
2023/04/09 09:48:18;;;;;;;;;;;;;;;-144.99;89.67;52325.81;5057216;28;19951;-74
2023/04/09 09:50:46;;;;;;;;;;;;;;;-144.99;89.95;52350.25;5071485;28;19912;-73
2023/04/09 09:53:13;;;;;;;;;;;;;;;-144.99;89.95;52317.66;5050136;28;20275;-72
2023/04/09 09:55:40;;;;;;;;;;;;;;;-144.99;89.71;52260.56;5048220;28;20353;-73
2023/04/09 09:58:10;;;;;;;;;;;;;;;-144.99;89.51;52340.06;5046361;28;20755;-74
2023/04/09 10:00:37;;;;;;;;;;;;;;;-144.99;91.36;52325.81;5049678;28;19935;-73
2023/04/09 10:03:07;;;;;;;;;;;;;;;-144.99;92.43;52342.09;5049989;28;20031;-73
2023/04/09 10:05:38;;;;;;;;;;;;;;;-144.99;92.23;52268.72;5042520;28;20012;-72
2023/04/09 10:08:04;;;;;;;;;;;;;;;-144.99;92.52;52285.03;5052073;28;19990;-72
2023/04/09 10:10:31;;;;;;;;;;;;;;;-144.99;91.22;52333.94;5048460;28;19972;-72
2023/04/09 10:12:58;;;;;;;;;;;;;;;-144.99;90.44;52319.69;5059979;28;19925;-72
2023/04/09 10:15:25;;;;;;;;;;;;;;;-144.99;89.55;52287.06;5050347;28;19967;-72
2023/04/09 10:17:52;;;;;;;;;;;;;;;-144.99;87.70;52289.13;5057446;28;19953;-71
2023/04/09 10:20:22;;;;;;;;;;;;;;;-144.99;88.39;52299.31;5043324;28;19929;-72
2023/04/09 10:22:52;;;;;;;;;;;;;;;-144.99;88.30;52317.66;5042231;28;19976;-74
2023/04/09 10:25:19;;;;;;;;;;;;;;;-144.99;87.95;52331.91;5042533;28;20033;-72
2023/04/09 10:27:48;;;;;;;;;;;;;;;-144.99;89.02;52301.34;5043790;28;20290;-72
2023/04/09 10:30:30;;;;;;;;;;;;;;;-144.99;88.39;52305.41;5064882;28;19925;-72
2023/04/09 10:32:56;;;;;;;;;;;;;;;-144.99;87.81;52313.56;5055094;28;19935;-72
2023/04/09 10:35:25;;;;;;;;;;;;;;;-144.99;86.01;52309.50;5046755;28;20395;-72
2023/04/09 10:37:53;;;;;;;;;;;;;;;-144.99;85.47;52338.03;5065518;28;19925;-73
2023/04/09 10:40:21;;;;;;;;;;;;;;;-144.99;85.39;52276.88;5060504;28;19925;-72
2023/04/09 10:42:49;;;;;;;;;;;;;;;-144.99;86.83;52336.00;5062067;28;19925;-72
2023/04/09 10:45:18;;;;;;;;;;;;;;;-144.99;86.05;52309.50;5057914;28;19933;-72
2023/04/09 10:47:50;;;;;;;;;;;;;;;-144.99;86.76;52346.19;5050393;28;20432;-73
2023/04/09 10:50:20;;;;;;;;;;;;;;;-144.99;85.32;52309.50;5047400;28;19937;-72
2023/04/09 10:52:47;;;;;;;;;;;;;;;-144.99;86.71;52358.41;5036580;28;19939;-72
2023/04/09 10:55:32;;;;;;;;;;;;;;;-144.99;86.95;52321.72;5034892;28;19928;-72
2023/04/09 10:58:00;;;;;;;;;;;;;;;-144.99;86.75;52309.50;5035491;28;20384;-72
2023/04/09 11:00:26;;;;;;;;;;;;;;;-144.99;88.00;52301.34;5034677;28;20023;-72
2023/04/09 11:03:10;;;;;;;;;;;;;;;-144.99;87.56;52309.50;5033962;28;19986;-73
2023/04/09 11:05:37;;;;;;;;;;;;;;;-144.99;86.70;52325.81;5032953;28;19929;-73
2023/04/09 11:08:05;;;;;;;;;;;;;;;-144.99;87.41;52329.88;5033016;28;20035;-72
2023/04/09 11:10:31;;;;;;;;;;;;;;;-144.99;88.02;52293.19;5050034;28;19928;-73
2023/04/09 11:12:58;;;;;;;;;;;;;;;-144.99;88.47;52313.56;5057909;28;19929;-73
2023/04/09 11:15:26;;;;;;;;;;;;;;;-144.99;85.26;52272.81;5039079;28;20023;-73
2023/04/09 11:17:52;;;;;;;;;;;;;;;-144.99;86.17;52301.34;5039617;28;19925;-73
2023/04/09 11:20:20;;;;;;;;;;;;;;;-144.99;84.87;52289.13;5040012;28;19929;-72
2023/04/09 11:22:47;;;;;;;;;;;;;;;-144.99;84.10;52301.34;5041892;28;19925;-72
2023/04/09 11:25:17;;;;;;;;;;;;;;;-144.99;83.85;52297.25;5039117;28;19984;-72
2023/04/09 11:27:45;;;;;;;;;;;;;;;-144.99;83.49;52285.03;5039497;28;20472;-71
2023/04/09 11:30:12;;;;;;;;;;;;;;;-144.99;82.90;52313.56;5042013;28;19932;-72
2023/04/09 11:32:39;;;;;;;;;;;;;;;-144.99;84.48;52299.31;5041056;28;20479;-71
2023/04/09 11:35:12;;;;;;;;;;;;;;;-144.99;84.26;52325.81;5039803;28;19951;-72
2023/04/09 11:37:38;;;;;;;;;;;;;;;-144.99;83.17;52278.91;5042668;28;20342;-73
2023/04/09 11:40:05;;;;;;;;;;;;;;;-144.99;81.75;52280.97;5044334;28;19932;-72
2023/04/09 11:42:32;;;;;;;;;;;;;;;-144.99;80.69;52260.56;5040421;28;20015;-72
2023/04/09 11:44:59;;;;;;;;;;;;;;;-144.99;82.53;52268.72;5045216;28;19931;-72
2023/04/09 11:47:26;;;;;;;;;;;;;;;-144.99;81.51;52240.19;5046628;28;19964;-72
2023/04/09 11:49:55;;;;;;;;;;;;;;;-144.99;81.03;52268.72;5048456;28;19975;-72
2023/04/09 11:52:21;;;;;;;;;;;;;;;-144.99;79.04;52215.75;5048998;22;20382;-67
2023/04/09 11:54:49;;;;;;;;;;;;;;;-144.99;77.57;52199.44;4991050;28;20452;-67
2023/04/09 11:57:15;;;;;;;;;;;;;;;-144.99;75.36;52085.31;4988038;28;19972;-67
2023/04/09 11:59:42;;;;;;;;;;;;;;;-144.99;74.23;52105.69;4989797;28;19930;-67
2023/04/09 12:02:08;;;;;;;;;;;;;;;-144.99;71.76;52146.44;4991164;28;19929;-67
2023/04/09 12:04:35;;;;;;;;;;;;;;;-144.99;71.56;52117.91;4987615;28;19926;-67
2023/04/09 12:07:03;;;;;;;;;;;;;;;-144.99;71.86;52056.78;4986045;28;19972;-68
2023/04/09 12:09:30;;;;;;;;;;;;;;;-144.99;70.82;52048.63;4983169;28;19953;-68
2023/04/09 12:11:56;;;;;;;;;;;;;;;-144.99;69.02;52048.63;4986752;28;19980;-67
2023/04/09 12:14:23;;;;;;;;;;;;;;;-144.99;68.14;52042.50;4983002;28;19929;-67
2023/04/09 12:16:52;;;;;;;;;;;;;;;-144.99;67.46;52052.69;4985839;28;19926;-68
2023/04/09 12:19:21;;;;;;;;;;;;;;;-144.99;66.11;52060.84;4990862;28;19985;-69
2023/04/09 12:21:48;;;;;;;;;;;;;;;-144.99;66.46;52146.44;4983329;28;20124;-68
2023/04/09 12:24:17;;;;;;;;;;;;;;;-144.99;65.73;52069.00;4991521;28;19980;-69
2023/04/09 12:26:44;;;;;;;;;;;;;;;-144.99;66.26;52081.22;4990773;28;19937;-69
2023/04/09 12:29:11;;;;;;;;;;;;;;;-144.99;65.70;52036.38;4982861;28;20027;-68
2023/04/09 12:31:38;;;;;;;;;;;;;;;-144.99;65.82;52117.91;4991184;28;19925;-69
2023/04/09 12:34:04;;;;;;;;;;;;;;;-144.99;65.20;52056.78;4988531;28;19994;-69
2023/04/09 12:36:31;;;;;;;;;;;;;;;-144.99;63.89;52056.78;4990051;28;19926;-68
2023/04/09 12:38:57;;;;;;;;;;;;;;;-144.99;64.44;52101.59;4990130;28;19964;-69
2023/04/09 12:41:25;;;;;;;;;;;;;;;-144.99;64.92;52077.16;4990344;28;19929;-68
2023/04/09 12:43:52;;;;;;;;;;;;;;;-144.99;64.52;52117.91;4989765;28;20010;-68
2023/04/09 12:46:18;;;;;;;;;;;;;;;-144.99;63.78;52073.06;4985449;28;19995;-70
2023/04/09 12:48:45;;;;;;;;;;;;;;;-144.99;64.19;52060.84;4996653;28;20344;-69
2023/04/09 12:51:11;;;;;;;;;;;;;;;-144.99;64.37;52052.69;4987679;28;19965;-69
2023/04/09 12:53:38;;;;;;;;;;;;;;;-144.99;63.63;52097.53;4989220;28;20015;-68
2023/04/09 12:56:05;;;;;;;;;;;;;;;-144.99;63.68;52117.91;4989147;28;19956;-68
2023/04/09 12:58:33;;;;;;;;;;;;;;;-144.99;64.20;52093.44;4990273;28;20333;-68
2023/04/09 13:01:00;;;;;;;;;;;;;;;-144.99;64.26;52087.34;4985743;28;19968;-69
2023/04/09 13:03:27;;;;;;;;;;;;;;;-144.99;63.91;52105.69;4990072;28;19940;-70
2023/04/09 13:05:54;;;;;;;;;;;;;;;-144.99;62.99;52060.84;4989993;28;19981;-68